Time;durP1;ratioP1;P1;durP2;ratioP2;P2;SDS_P1;SDS_P2;PMS_P1;PMS_P2;Temp;Humidity;BMP_temperature;BMP_pressure;BME280_temperature;BME280_humidity;BME280_pressure;Samples;Min_cycle;Max_cycle;Signal;HPM_P1;HPM_P2
2023/07/02 11:35:38;;;;;;;12.10;7.57;;;;;;;22.50;34.75;100413.75;701006;27;20581;-76
2023/07/02 11:35:58;;;;;;;14.63;8.03;;;;;;;22.59;34.49;100439.22;700981;28;1591;-76
2023/07/02 11:36:22;;;;;;;13.85;7.85;;;;;;;22.59;34.18;100433.91;698466;28;1541;-76
2023/07/02 11:36:43;;;;;;;13.85;7.47;;;;;;;22.52;33.87;100429.69;698788;28;1903;-77
2023/07/02 11:37:04;;;;;;;11.63;7.00;;;;;;;22.53;34.01;100439.41;694750;28;1376;-77
2023/07/02 11:37:26;;;;;;;12.63;6.90;;;;;;;22.33;33.90;100432.84;693188;28;944;-77
2023/07/02 11:37:48;;;;;;;12.35;7.00;;;;;;;22.22;33.70;100422.47;692465;28;1491;-77
2023/07/02 11:38:12;;;;;;;13.90;6.93;;;;;;;22.10;34.00;100423.66;692165;28;1281;-78
2023/07/02 11:38:34;;;;;;;13.00;6.60;;;;;;;22.02;33.95;100437.13;695476;28;1219;-77
2023/07/02 11:38:55;;;;;;;11.90;6.50;;;;;;;21.90;34.28;100437.44;692711;28;2089;-76
2023/07/02 11:39:16;;;;;;;12.40;6.72;;;;;;;21.84;34.40;100419.00;695521;28;1026;-77
2023/07/02 11:39:36;;;;;;;12.15;6.65;;;;;;;21.76;34.39;100421.84;695989;28;1428;-78
2023/07/02 11:39:57;;;;;;;12.88;6.65;;;;;;;21.86;34.55;100431.34;689767;28;1180;-79
2023/07/02 11:40:18;;;;;;;12.43;6.60;;;;;;;21.97;34.63;100427.53;692625;28;2122;-79
2023/07/02 11:40:39;;;;;;;13.52;6.70;;;;;;;22.05;34.00;100417.56;693310;28;1240;-80
2023/07/02 11:41:00;;;;;;;13.43;6.57;;;;;;;22.08;33.86;100429.91;695680;28;1286;-79
2023/07/02 11:41:21;;;;;;;11.18;6.40;;;;;;;22.12;33.80;100419.16;695654;28;1392;-79
2023/07/02 11:41:45;;;;;;;12.68;6.78;;;;;;;22.09;33.87;100411.28;695949;28;1289;-78
2023/07/02 11:42:06;;;;;;;13.93;6.80;;;;;;;22.18;34.21;100428.75;691233;28;1073;-80
2023/07/02 11:42:29;;;;;;;14.45;6.65;;;;;;;22.18;33.91;100418.13;694810;28;1808;-79
2023/07/02 11:42:51;;;;;;;13.90;6.70;;;;;;;22.25;33.88;100417.09;693334;28;760;-80
2023/07/02 11:43:12;;;;;;;13.50;6.95;;;;;;;22.46;33.62;100428.06;697787;28;1636;-79
2023/07/02 11:43:34;;;;;;;14.38;7.00;;;;;;;22.53;33.41;100436.75;698445;28;1493;-80
2023/07/02 11:43:54;;;;;;;13.45;6.93;;;;;;;22.48;33.38;100406.78;692667;28;1359;-79
2023/07/02 11:44:17;;;;;;;12.05;6.63;;;;;;;22.56;33.46;100428.69;698239;28;1040;-79
2023/07/02 11:44:38;;;;;;;11.73;6.60;;;;;;;22.57;33.55;100441.94;693212;28;890;-79
2023/07/02 11:44:59;;;;;;;12.83;6.60;;;;;;;22.55;33.50;100429.59;695866;28;1462;-79
2023/07/02 11:45:19;;;;;;;11.75;6.50;;;;;;;22.45;33.52;100429.00;695836;28;1092;-78
2023/07/02 11:45:40;;;;;;;12.30;6.40;;;;;;;22.34;33.83;100423.97;690307;28;1981;-79
2023/07/02 11:46:01;;;;;;;12.57;6.40;;;;;;;22.24;34.07;100430.41;690628;28;1272;-79
2023/07/02 11:46:22;;;;;;;14.05;6.65;;;;;;;22.07;34.15;100434.34;693151;28;1024;-78
2023/07/02 11:46:42;;;;;;;13.82;6.85;;;;;;;21.97;34.56;100435.50;691243;28;1170;-79
2023/07/02 11:47:03;;;;;;;13.30;7.10;;;;;;;21.98;34.55;100445.22;688291;28;1151;-78
2023/07/02 11:47:25;;;;;;;13.17;7.10;;;;;;;22.06;34.47;100429.94;692895;28;1014;-77
2023/07/02 11:47:45;;;;;;;12.93;7.15;;;;;;;22.14;34.21;100445.72;689150;28;1558;-77
2023/07/02 11:48:06;;;;;;;11.27;6.50;;;;;;;22.29;34.18;100457.75;690055;28;1304;-77
2023/07/02 11:48:27;;;;;;;10.10;6.47;;;;;;;22.19;34.17;100428.72;689755;28;1272;-77
2023/07/02 11:48:48;;;;;;;10.65;6.88;;;;;;;22.09;34.06;100419.25;692973;28;1753;-77
2023/07/02 11:49:09;;;;;;;11.55;7.00;;;;;;;22.12;34.17;100448.41;693640;28;1205;-77
2023/07/02 11:49:29;;;;;;;12.43;6.93;;;;;;;22.01;34.06;100421.25;694212;28;830;-77
2023/07/02 11:49:50;;;;;;;13.20;6.57;;;;;;;21.99;34.19;100425.69;692525;28;1590;-77
2023/07/02 11:50:11;;;;;;;12.70;6.50;;;;;;;21.99;34.16;100433.66;689730;28;1059;-78
2023/07/02 11:50:31;;;;;;;13.35;6.57;;;;;;;22.01;33.88;100443.34;693223;28;929;-77
2023/07/02 11:50:52;;;;;;;12.82;6.60;;;;;;;22.03;33.79;100422.97;692984;28;1432;-77
2023/07/02 11:51:13;;;;;;;13.60;6.60;;;;;;;22.00;34.11;100424.81;692808;28;1181;-77
2023/07/02 11:51:36;;;;;;;14.50;6.82;;;;;;;22.04;34.06;100421.16;692682;28;1265;-77
2023/07/02 11:51:57;;;;;;;15.10;6.97;;;;;;;22.26;34.00;100429.47;695523;28;1581;-76
2023/07/02 11:52:17;;;;;;;13.87;6.70;;;;;;;22.52;33.87;100430.56;695697;28;1410;-77
2023/07/02 11:52:38;;;;;;;12.65;6.80;;;;;;;22.63;33.47;100430.28;693302;28;748;-77
2023/07/02 11:52:59;;;;;;;12.23;6.70;;;;;;;22.72;33.26;100430.00;698435;28;1124;-77
2023/07/02 11:53:19;;;;;;;11.52;6.68;;;;;;;22.66;33.40;100426.63;697219;28;1137;-77
2023/07/02 11:53:40;;;;;;;10.63;6.30;;;;;;;22.63;33.48;100424.97;693299;28;755;-77
2023/07/02 11:54:01;;;;;;;10.23;6.30;;;;;;;22.56;33.60;100423.38;698384;28;1108;-79
2023/07/02 11:54:22;;;;;;;10.32;6.30;;;;;;;22.46;33.41;100418.28;694806;28;1368;-78
2023/07/02 11:54:43;;;;;;;10.90;6.43;;;;;;;22.35;33.18;100415.06;695265;28;2741;-78
2023/07/02 11:55:05;;;;;;;11.55;6.32;;;;;;;22.24;33.40;100431.25;692609;28;1130;-78
2023/07/02 11:55:25;;;;;;;11.77;6.43;;;;;;;22.11;33.20;100437.78;695733;28;1973;-78
2023/07/02 11:55:46;;;;;;;11.90;6.27;;;;;;;22.02;33.37;100428.28;696067;28;752;-77
2023/07/02 11:56:07;;;;;;;11.27;5.90;;;;;;;21.95;33.43;100432.88;695771;28;1290;-78
2023/07/02 11:56:27;;;;;;;13.55;5.90;;;;;;;21.85;33.41;100426.94;690727;28;1909;-78
2023/07/02 11:56:48;;;;;;;15.50;6.23;;;;;;;21.76;33.63;100437.78;690225;28;2362;-78
2023/07/02 11:57:09;;;;;;;18.50;7.10;;;;;;;21.62;34.01;100436.34;691797;28;1143;-78
2023/07/02 11:57:29;;;;;;;17.93;7.23;;;;;;;21.47;34.13;100431.34;692244;28;777;-77
2023/07/02 11:57:51;;;;;;;15.40;7.05;;;;;;;21.34;34.61;100431.63;693603;28;1518;-78
2023/07/02 11:58:12;;;;;;;13.40;6.57;;;;;;;21.34;34.82;100452.84;694643;28;1386;-78
2023/07/02 11:58:33;;;;;;;12.53;6.60;;;;;;;21.30;34.83;100445.88;695875;28;1310;-79
2023/07/02 11:58:54;;;;;;;12.82;6.53;;;;;;;21.23;34.82;100438.94;695856;28;1225;-79
2023/07/02 11:59:14;;;;;;;11.73;6.55;;;;;;;21.17;35.18;100445.28;695291;28;1103;-78
2023/07/02 11:59:36;;;;;;;10.37;6.60;;;;;;;21.08;35.20;100446.34;694962;28;1067;-79
2023/07/02 11:59:57;;;;;;;13.32;6.85;;;;;;;21.03;35.14;100434.94;690645;28;1127;-79
2023/07/02 12:00:18;;;;;;;13.50;6.68;;;;;;;21.01;35.36;100446.50;695782;28;1081;-79
2023/07/02 12:00:39;;;;;;;13.95;6.60;;;;;;;20.94;35.37;100429.81;690348;28;966;-77
2023/07/02 12:01:00;;;;;;;11.23;6.40;;;;;;;20.98;35.55;100433.28;690131;28;1347;-78
2023/07/02 12:01:21;;;;;;;12.38;6.53;;;;;;;20.99;35.47;100437.69;693001;28;1167;-78
2023/07/02 12:01:42;;;;;;;13.00;6.75;;;;;;;21.18;35.62;100439.06;693292;28;775;-78
2023/07/02 12:02:03;;;;;;;13.77;7.00;;;;;;;21.17;35.57;100433.78;696472;28;1072;-78
2023/07/02 12:02:23;;;;;;;12.95;7.05;;;;;;;21.28;35.00;100437.09;693721;28;1198;-78
2023/07/02 12:02:44;;;;;;;12.40;6.83;;;;;;;21.28;34.99;100437.09;693176;28;1487;-79
2023/07/02 12:03:05;;;;;;;14.02;7.05;;;;;;;21.31;34.97;100441.41;692706;28;1095;-79
2023/07/02 12:03:25;;;;;;;13.48;7.30;;;;;;;21.31;35.17;100437.00;691480;28;1222;-79
2023/07/02 12:03:47;;;;;;;13.15;7.50;;;;;;;21.25;35.00;100436.28;690726;28;776;-79
2023/07/02 12:04:11;;;;;;;11.30;7.07;;;;;;;21.34;35.39;100442.22;690122;28;1343;-78
2023/07/02 12:04:32;;;;;;;11.95;6.50;;;;;;;21.36;35.00;100434.25;690534;28;944;-80
2023/07/02 12:04:52;;;;;;;11.57;6.28;;;;;;;21.43;34.84;100434.97;690365;28;1413;-79
2023/07/02 12:05:13;;;;;;;10.03;6.00;;;;;;;21.46;34.90;100430.47;689802;28;1066;-79
2023/07/02 12:05:34;;;;;;;10.57;6.28;;;;;;;21.59;34.69;100447.00;690654;28;901;-79
2023/07/02 12:05:54;;;;;;;10.67;6.40;;;;;;;21.59;34.61;100436.38;687744;28;1135;-78
2023/07/02 12:06:15;;;;;;;11.20;6.70;;;;;;;21.58;34.30;100436.44;692651;28;1104;-78
2023/07/02 12:06:36;;;;;;;10.35;6.40;;;;;;;21.59;34.39;100435.53;690459;28;1201;-79
2023/07/02 12:06:57;;;;;;;12.45;6.43;;;;;;;21.64;34.38;100438.97;690444;28;1895;-79
2023/07/02 12:07:18;;;;;;;14.00;6.80;;;;;;;21.58;34.50;100434.66;695386;28;1620;-78
2023/07/02 12:07:39;;;;;;;15.32;7.18;;;;;;;21.62;34.64;100452.25;693165;28;1815;-78
2023/07/02 12:08:02;;;;;;;13.67;7.00;;;;;;;21.56;34.73;100444.44;695127;28;1095;-77
2023/07/02 12:08:22;;;;;;;13.10;6.60;;;;;;;21.56;34.62;100438.22;695025;28;984;-78
2023/07/02 12:08:43;;;;;;;13.45;6.25;;;;;;;21.62;34.39;100449.59;696181;28;752;-78
2023/07/02 12:09:04;;;;;;;13.15;6.35;;;;;;;21.60;34.51;100447.88;694620;28;1051;-79
2023/07/02 12:09:25;;;;;;;13.50;6.60;;;;;;;21.62;34.38;100441.63;697140;28;1387;-79
2023/07/02 12:09:46;;;;;;;12.27;6.72;;;;;;;21.82;34.56;100428.78;696081;28;822;-78
2023/07/02 12:10:08;;;;;;;13.20;7.15;;;;;;;22.09;33.91;100437.84;691582;28;1258;-78
2023/07/02 12:10:28;;;;;;;12.60;6.90;;;;;;;22.26;33.79;100426.81;692524;28;1522;-80
2023/07/02 12:10:49;;;;;;;12.02;6.72;;;;;;;22.41;33.60;100425.53;693922;28;1842;-78
2023/07/02 12:11:10;;;;;;;11.77;6.50;;;;;;;22.64;33.54;100420.50;689950;28;1205;-78
2023/07/02 12:11:31;;;;;;;12.75;6.68;;;;;;;22.78;33.27;100422.75;688781;28;1600;-77
2023/07/02 12:11:52;;;;;;;13.52;6.85;;;;;;;22.94;32.91;100442.66;690390;28;1150;-79
2023/07/02 12:12:13;;;;;;;13.60;6.93;;;;;;;23.19;33.24;100439.34;692843;28;1276;-77
2023/07/02 12:12:33;;;;;;;13.38;6.90;;;;;;;23.43;32.77;100423.53;698562;28;839;-78
2023/07/02 12:12:54;;;;;;;13.13;6.80;;;;;;;23.85;32.37;100432.00;693113;28;1041;-78
2023/07/02 12:13:15;;;;;;;13.82;6.60;;;;;;;24.21;32.39;100428.97;695390;28;1142;-78
2023/07/02 12:13:36;;;;;;;12.32;6.60;;;;;;;24.52;32.09;100430.59;694950;28;1194;-80
2023/07/02 12:13:56;;;;;;;13.17;7.10;;;;;;;24.81;31.03;100422.44;692764;28;1351;-79
2023/07/02 12:14:17;;;;;;;12.95;7.20;;;;;;;25.11;30.76;100425.81;692889;28;1226;-78
2023/07/02 12:14:38;;;;;;;13.40;7.20;;;;;;;25.49;30.65;100432.38;692955;28;1967;-78
2023/07/02 12:14:59;;;;;;;11.98;6.65;;;;;;;25.75;30.18;100431.28;687406;28;1362;-78
2023/07/02 12:15:20;;;;;;;12.37;6.90;;;;;;;25.97;29.54;100431.31;690308;28;1975;-77
2023/07/02 12:15:41;;;;;;;11.88;6.60;;;;;;;26.20;29.20;100425.88;693412;28;1410;-79
2023/07/02 12:16:02;;;;;;;11.50;6.40;;;;;;;26.56;28.91;100426.09;689292;28;1311;-78
2023/07/02 12:16:23;;;;;;;11.20;5.95;;;;;;;26.85;28.83;100427.53;687645;28;1202;-80
2023/07/02 12:16:44;;;;;;;11.95;6.40;;;;;;;27.20;28.36;100438.41;687819;28;1222;-79
2023/07/02 12:17:05;;;;;;;12.60;7.00;;;;;;;27.38;27.59;100413.41;691507;28;1276;-78
2023/07/02 12:17:25;;;;;;;11.75;6.95;;;;;;;27.54;27.64;100436.78;695726;28;1061;-79
2023/07/02 12:17:46;;;;;;;10.43;6.55;;;;;;;27.51;27.31;100415.50;695960;28;1242;-78
2023/07/02 12:18:08;;;;;;;9.83;6.10;;;;;;;27.49;27.41;100422.75;687266;28;1058;-78
2023/07/02 12:18:28;;;;;;;10.43;6.22;;;;;;;27.40;27.18;100423.22;692940;28;969;-78
2023/07/02 12:18:49;;;;;;;11.30;6.43;;;;;;;27.30;27.77;100420.09;695189;28;1020;-79
2023/07/02 12:19:10;;;;;;;12.55;6.20;;;;;;;27.27;27.41;100423.78;694265;28;1730;-79
2023/07/02 12:19:31;;;;;;;11.95;6.10;;;;;;;27.26;27.66;100431.91;693237;28;798;-78
2023/07/02 12:19:52;;;;;;;12.53;6.40;;;;;;;27.26;27.16;100427.41;693281;28;1023;-80
2023/07/02 12:20:12;;;;;;;11.48;6.75;;;;;;;27.28;27.34;100428.22;695344;28;1186;-79
2023/07/02 12:20:33;;;;;;;11.87;6.70;;;;;;;27.27;27.33;100430.94;695863;28;1026;-78
2023/07/02 12:20:54;;;;;;;10.77;6.30;;;;;;;27.30;27.44;100422.78;690312;28;1173;-79
2023/07/02 12:21:15;;;;;;;12.73;6.38;;;;;;;27.32;27.67;100420.91;689277;28;1978;-80
2023/07/02 12:21:36;;;;;;;13.55;6.38;;;;;;;27.16;27.57;100448.41;693377;28;819;-79
2023/07/02 12:21:57;;;;;;;15.07;6.28;;;;;;;26.87;27.83;100441.72;692714;28;1254;-77
2023/07/02 12:22:21;;;;;;;13.40;6.45;;;;;;;26.59;27.55;100426.88;691094;28;2019;-78
2023/07/02 12:22:44;;;;;;;13.40;6.63;;;;;;;26.29;27.66;100426.38;687904;28;899;-79
2023/07/02 12:23:05;;;;;;;12.27;6.50;;;;;;;26.00;27.67;100431.16;690004;28;1090;-78
2023/07/02 12:23:26;;;;;;;12.07;6.60;;;;;;;25.69;28.13;100431.56;695082;28;1347;-78
2023/07/02 12:23:46;;;;;;;12.70;6.70;;;;;;;25.57;28.37;100449.81;698765;28;778;-78
2023/07/02 12:24:09;;;;;;;13.03;6.57;;;;;;;25.40;28.77;100423.75;695625;28;1604;-78
2023/07/02 12:24:29;;;;;;;14.07;6.72;;;;;;;25.44;28.77;100438.75;693119;28;776;-78
2023/07/02 12:24:53;;;;;;;11.53;6.20;;;;;;;25.59;28.67;100434.56;696087;28;1420;-79
2023/07/02 12:25:14;;;;;;;10.38;6.30;;;;;;;25.87;28.61;100429.94;693091;28;1176;-78
2023/07/02 12:25:35;;;;;;;14.23;6.80;;;;;;;25.98;27.90;100419.66;693081;28;1404;-78
2023/07/02 12:25:55;;;;;;;13.77;6.70;;;;;;;26.14;28.28;100432.38;695522;28;1637;-78
2023/07/02 12:26:16;;;;;;;13.68;6.80;;;;;;;26.26;27.72;100429.16;692693;28;1211;-77
2023/07/02 12:26:37;;;;;;;11.77;6.50;;;;;;;26.32;27.63;100419.13;692331;28;1153;-78
2023/07/02 12:26:58;;;;;;;12.02;6.53;;;;;;;26.44;27.64;100415.09;690062;28;1170;-78
2023/07/02 12:27:18;;;;;;;11.47;5.80;;;;;;;26.73;27.48;100428.97;692129;28;1208;-79
2023/07/02 12:27:39;;;;;;;10.20;5.70;;;;;;;26.88;27.38;100416.66;687621;28;1555;-79
2023/07/02 12:28:03;;;;;;;12.68;6.43;;;;;;;27.07;27.15;100417.59;691913;28;1238;-79
2023/07/02 12:28:23;;;;;;;12.63;6.50;;;;;;;27.36;27.19;100438.56;695741;28;925;-78
2023/07/02 12:28:44;;;;;;;11.00;6.38;;;;;;;27.58;26.71;100435.69;700514;28;1513;-78
2023/07/02 12:29:04;;;;;;;10.20;5.93;;;;;;;27.83;26.68;100423.78;696399;28;1248;-79
2023/07/02 12:29:25;;;;;;;9.90;5.97;;;;;;;28.09;26.31;100416.22;690469;28;1010;-80
2023/07/02 12:29:46;;;;;;;10.13;6.10;;;;;;;28.23;25.88;100422.69;690353;28;1361;-79
2023/07/02 12:30:08;;;;;;;10.48;6.03;;;;;;;28.34;25.66;100415.00;690098;28;1141;-78
2023/07/02 12:30:28;;;;;;;10.90;6.07;;;;;;;28.41;25.52;100405.63;695341;28;1873;-78
2023/07/02 12:30:49;;;;;;;11.20;5.88;;;;;;;28.55;25.46;100428.19;698606;28;1525;-79
2023/07/02 12:31:12;;;;;;;9.65;5.70;;;;;;;28.70;25.29;100427.38;695341;28;1585;-78
2023/07/02 12:31:33;;;;;;;8.57;5.43;;;;;;;28.84;24.88;100423.94;693810;28;1541;-79
2023/07/02 12:31:53;;;;;;;9.07;5.50;;;;;;;28.95;24.94;100415.31;686335;28;1484;-79
2023/07/02 12:32:14;;;;;;;10.40;5.67;;;;;;;29.13;25.00;100434.03;687170;28;1191;-78
2023/07/02 12:32:37;;;;;;;10.50;5.75;;;;;;;29.09;24.98;100419.94;687904;28;911;-79
2023/07/02 12:32:58;;;;;;;10.52;5.88;;;;;;;28.98;24.56;100425.91;687386;28;1179;-77
2023/07/02 12:33:19;;;;;;;9.20;5.70;;;;;;;28.66;24.61;100425.81;684023;28;1284;-78
2023/07/02 12:33:40;;;;;;;8.77;5.43;;;;;;;28.30;24.95;100418.78;690102;28;1330;-79
2023/07/02 12:34:02;;;;;;;8.05;5.15;;;;;;;28.03;25.66;100428.13;694782;28;1241;-78
2023/07/02 12:34:23;;;;;;;10.05;5.20;;;;;;;27.68;25.80;100421.88;695702;28;1522;-78
2023/07/02 12:34:44;;;;;;;10.82;5.38;;;;;;;27.19;26.23;100432.22;693120;28;1194;-79
2023/07/02 12:35:05;;;;;;;10.50;5.33;;;;;;;26.80;26.60;100427.75;691595;28;1177;-79
2023/07/02 12:35:59;;;;;;;10.70;5.75;;;;;;;26.23;26.91;100452.50;690893;28;1914;-78
2023/07/02 12:36:19;;;;;;;9.85;5.53;;;;;;;25.88;27.31;100437.03;690239;28;1021;-79
2023/07/02 12:36:41;;;;;;;10.00;5.80;;;;;;;25.88;27.59;100423.69;693163;28;1477;-78
2023/07/02 12:37:03;;;;;;;10.38;5.78;;;;;;;26.03;27.42;100434.63;689652;28;1250;-77
2023/07/02 12:37:24;;;;;;;9.88;5.70;;;;;;;26.20;27.25;100442.81;690478;28;1111;-78
2023/07/02 12:37:47;;;;;;;9.13;5.60;;;;;;;26.39;27.09;100440.19;690490;28;956;-78
2023/07/02 12:38:08;;;;;;;9.35;5.70;;;;;;;26.61;27.14;100441.09;689307;28;1199;-78
2023/07/02 12:38:29;;;;;;;9.80;5.80;;;;;;;26.76;26.83;100428.81;695643;28;1415;-78
2023/07/02 12:38:50;;;;;;;10.67;5.80;;;;;;;26.98;26.51;100434.03;695856;28;1000;-79
2023/07/02 12:39:10;;;;;;;11.00;5.57;;;;;;;27.24;26.38;100440.88;692722;28;1190;-78
2023/07/02 12:39:31;;;;;;;10.23;5.13;;;;;;;27.40;26.01;100425.91;690464;28;1584;-78
2023/07/02 12:39:52;;;;;;;9.73;5.25;;;;;;;27.65;25.92;100429.13;690149;28;1483;-78
2023/07/02 12:40:14;;;;;;;11.20;5.60;;;;;;;28.00;25.21;100428.31;697744;28;1167;-78
2023/07/02 12:40:35;;;;;;;11.85;5.85;;;;;;;28.16;24.67;100425.69;698629;28;775;-79
2023/07/02 12:40:55;;;;;;;9.90;5.70;;;;;;;28.17;24.57;100427.41;690612;28;1167;-79
2023/07/02 12:41:16;;;;;;;9.52;5.70;;;;;;;28.26;24.74;100438.59;687455;28;1194;-79
2023/07/02 12:41:37;;;;;;;11.33;5.80;;;;;;;28.37;24.67;100425.56;693185;28;1232;-80
2023/07/02 12:41:57;;;;;;;11.85;5.80;;;;;;;28.45;24.87;100407.22;692809;28;1173;-78
2023/07/02 12:42:18;;;;;;;10.90;5.57;;;;;;;28.57;24.50;100404.81;694436;28;1280;-79
2023/07/02 12:42:41;;;;;;;9.80;5.30;;;;;;;28.80;24.38;100416.13;693087;28;1290;-78
2023/07/02 12:43:02;;;;;;;13.30;5.35;;;;;;;28.96;24.39;100421.56;690816;28;1274;-78
2023/07/02 12:43:34;;;;;;;14.70;5.40;;;;;;;29.21;24.33;100436.31;693186;28;874;-79
2023/07/02 12:43:56;;;;;;;11.98;5.70;;;;;;;29.21;24.19;100430.94;693036;28;1114;-79
2023/07/02 12:44:17;;;;;;;10.20;5.70;;;;;;;29.03;24.18;100428.34;692890;28;1284;-77
2023/07/02 12:44:37;;;;;;;9.43;5.43;;;;;;;28.76;24.55;100417.25;687707;28;1286;-79
2023/07/02 12:44:58;;;;;;;9.88;5.20;;;;;;;28.42;24.34;100450.34;690299;28;1146;-78
2023/07/02 12:45:19;;;;;;;9.25;5.00;;;;;;;28.06;24.88;100433.34;687350;28;1078;-78
2023/07/02 12:45:46;;;;;;;9.70;5.17;;;;;;;27.74;25.06;100438.50;696046;28;1187;-79
2023/07/02 12:46:07;;;;;;;9.77;5.57;;;;;;;27.42;25.43;100427.53;694232;28;1232;-79
2023/07/02 12:46:28;;;;;;;10.00;5.70;;;;;;;27.21;25.69;100445.50;690291;28;1195;-81
2023/07/02 12:46:49;;;;;;;8.88;5.47;;;;;;;26.83;25.87;100419.56;689859;28;1069;-80
2023/07/02 12:47:09;;;;;;;9.00;5.55;;;;;;;26.64;26.26;100436.47;692162;28;1304;-79
2023/07/02 12:47:30;;;;;;;8.70;5.55;;;;;;;26.51;26.35;100416.56;693937;28;731;-79
2023/07/02 12:47:50;;;;;;;9.10;6.00;;;;;;;26.45;26.80;100420.38;691353;28;732;-78
2023/07/02 12:48:11;;;;;;;9.00;5.93;;;;;;;26.41;26.91;100424.09;693633;28;1164;-80
2023/07/02 12:48:32;;;;;;;9.63;6.03;;;;;;;26.42;26.74;100436.53;694056;28;1509;-80
2023/07/02 12:48:53;;;;;;;10.02;6.00;;;;;;;26.29;26.86;100431.72;694060;28;1032;-79
2023/07/02 12:49:14;;;;;;;10.90;6.05;;;;;;;26.07;26.89;100420.22;693568;28;1199;-79
2023/07/02 12:49:35;;;;;;;11.10;6.03;;;;;;;25.93;27.11;100435.03;688074;28;954;-79
2023/07/02 12:49:56;;;;;;;9.95;6.00;;;;;;;25.72;27.39;100437.66;688562;28;1137;-78
2023/07/02 12:50:17;;;;;;;9.53;6.00;;;;;;;25.54;27.59;100433.03;685770;28;1021;-79
2023/07/02 12:50:38;;;;;;;9.48;5.80;;;;;;;25.26;28.07;100435.00;685907;28;1446;-79
2023/07/02 12:51:00;;;;;;;9.70;5.93;;;;;;;25.04;28.02;100443.78;685673;28;1194;-79
2023/07/02 12:51:21;;;;;;;9.35;5.88;;;;;;;24.77;28.27;100421.72;685972;28;1085;-79
2023/07/02 12:51:42;;;;;;;9.50;5.80;;;;;;;24.50;28.41;100430.66;688670;28;907;-79
2023/07/02 12:52:03;;;;;;;9.13;5.37;;;;;;;24.30;28.60;100434.03;687268;28;1289;-79
2023/07/02 12:52:24;;;;;;;10.05;5.45;;;;;;;24.16;28.86;100442.47;688506;28;968;-79
2023/07/02 12:52:45;;;;;;;10.33;5.80;;;;;;;24.04;29.24;100433.09;686059;28;733;-80
2023/07/02 12:53:06;;;;;;;11.25;5.90;;;;;;;24.00;29.18;100418.16;686581;28;1487;-79
2023/07/02 12:53:27;;;;;;;10.10;5.80;;;;;;;24.16;29.15;100441.63;694024;28;1127;-80
2023/07/02 12:53:48;;;;;;;10.55;5.70;;;;;;;24.08;29.51;100429.41;693293;28;756;-78
2023/07/02 12:54:08;;;;;;;9.40;5.30;;;;;;;24.28;29.56;100427.84;692635;28;1220;-79
2023/07/02 12:54:29;;;;;;;10.65;5.55;;;;;;;24.54;29.37;100446.56;691116;28;1570;-78
2023/07/02 12:54:50;;;;;;;10.57;5.60;;;;;;;24.68;29.11;100444.25;688565;28;1413;-79
2023/07/02 12:55:12;;;;;;;11.13;6.00;;;;;;;24.62;28.85;100440.03;693027;28;1160;-79
2023/07/02 12:55:32;;;;;;;10.60;5.70;;;;;;;24.56;29.06;100434.91;693867;28;1972;-79
2023/07/02 12:55:54;;;;;;;9.63;5.63;;;;;;;24.54;28.83;100431.44;692931;28;1320;-79
2023/07/02 12:56:15;;;;;;;10.90;5.90;;;;;;;24.66;28.96;100440.78;688958;28;1155;-79
2023/07/02 12:56:53;;;;;;;10.30;6.00;;;;;;;24.83;28.65;100436.63;684905;28;1242;-80
2023/07/02 12:57:14;;;;;;;9.45;6.25;;;;;;;25.07;28.52;100450.81;688177;28;1319;-79
2023/07/02 12:57:35;;;;;;;9.95;6.20;;;;;;;25.23;28.11;100439.59;690891;28;1196;-79
2023/07/02 12:57:56;;;;;;;10.48;5.97;;;;;;;25.44;28.11;100448.53;688456;28;1208;-78
2023/07/02 12:58:17;;;;;;;10.00;5.60;;;;;;;25.61;27.86;100445.22;689843;28;1250;-79
2023/07/02 12:58:38;;;;;;;10.48;5.50;;;;;;;25.76;27.80;100432.19;693484;28;1276;-79
2023/07/02 12:59:01;;;;;;;9.45;5.40;;;;;;;26.01;27.77;100434.72;696459;28;1845;-79
2023/07/02 12:59:22;;;;;;;9.05;5.60;;;;;;;26.26;27.25;100441.69;693334;28;1566;-79
2023/07/02 12:59:43;;;;;;;7.93;5.50;;;;;;;26.45;27.19;100435.53;691433;28;791;-78
2023/07/02 13:00:06;;;;;;;8.85;5.50;;;;;;;26.63;27.19;100428.50;693580;28;1204;-79
2023/07/02 13:00:26;;;;;;;10.45;5.50;;;;;;;26.82;26.86;100440.09;691186;28;1021;-78
2023/07/02 13:00:56;;;;;;;12.10;6.00;;;;;;;27.09;26.67;100442.47;694017;28;1216;-79
2023/07/02 13:01:17;;;;;;;13.05;5.72;;;;;;;27.23;26.51;100427.59;693739;28;1108;-79
2023/07/02 13:01:38;;;;;;;12.48;5.63;;;;;;;27.34;26.36;100425.25;691061;28;1334;-79
2023/07/02 13:01:58;;;;;;;12.68;6.03;;;;;;;27.42;26.02;100432.03;688185;28;1689;-79
2023/07/02 13:02:19;;;;;;;13.53;6.20;;;;;;;27.41;25.70;100427.63;685734;28;1120;-80
2023/07/02 13:02:39;;;;;;;13.70;6.07;;;;;;;27.38;25.62;100437.53;688731;28;779;-79
2023/07/02 13:03:00;;;;;;;12.03;5.80;;;;;;;27.28;26.07;100433.56;693518;28;1275;-80
2023/07/02 13:03:23;;;;;;;10.43;5.50;;;;;;;27.33;25.80;100428.88;686310;28;1188;-78
2023/07/02 13:03:47;;;;;;;9.90;5.43;;;;;;;27.40;26.16;100445.50;685914;28;803;-79
2023/07/02 13:04:08;;;;;;;9.57;5.53;;;;;;;27.26;26.09;100432.78;689735;28;1186;-80
2023/07/02 13:04:28;;;;;;;9.60;5.40;;;;;;;27.07;26.23;100433.66;691241;28;1230;-79
2023/07/02 13:04:50;;;;;;;9.35;5.40;;;;;;;26.77;26.26;100442.13;689361;28;762;-79
2023/07/02 13:05:11;;;;;;;9.60;5.30;;;;;;;26.49;26.64;100431.81;689373;28;1130;-78
2023/07/02 13:05:31;;;;;;;9.80;5.53;;;;;;;26.11;26.84;100437.84;689578;28;862;-79
2023/07/02 13:05:52;;;;;;;10.80;5.60;;;;;;;25.81;26.99;100440.91;691611;28;1027;-79
2023/07/02 13:06:14;;;;;;;11.57;5.75;;;;;;;25.49;27.40;100435.03;691367;28;1209;-79
2023/07/02 13:06:46;;;;;;;11.93;5.40;;;;;;;25.41;28.07;100454.91;688647;28;768;-80
2023/07/02 13:07:34;;;;;;;10.93;5.50;;;;;;;25.59;27.80;100453.28;692423;28;1110;-79
2023/07/02 13:07:55;;;;;;;13.20;6.18;;;;;;;25.76;27.79;100433.03;692992;28;1246;-79
2023/07/02 13:08:16;;;;;;;12.65;5.85;;;;;;;26.04;27.29;100452.41;691794;28;1197;-79
2023/07/02 13:08:37;;;;;;;10.55;5.80;;;;;;;26.13;27.35;100430.66;693885;28;1683;-78
2023/07/02 13:08:57;;;;;;;10.37;5.97;;;;;;;26.31;27.07;100428.97;691078;28;1381;-78
2023/07/02 13:09:18;;;;;;;11.75;5.78;;;;;;;26.50;26.88;100429.03;690956;28;1190;-79
2023/07/02 13:09:39;;;;;;;11.30;5.80;;;;;;;26.72;26.78;100444.13;690639;28;1266;-78
2023/07/02 13:09:59;;;;;;;11.57;5.95;;;;;;;26.80;26.74;100431.28;688243;28;1326;-80
2023/07/02 13:10:20;;;;;;;9.87;5.90;;;;;;;26.94;26.81;100444.00;688344;28;1384;-79
2023/07/02 13:10:41;;;;;;;9.23;5.90;;;;;;;26.96;26.92;100423.41;688716;28;1280;-79
2023/07/02 13:11:02;;;;;;;9.10;5.57;;;;;;;27.22;26.87;100439.22;690953;28;1146;-79
2023/07/02 13:11:22;;;;;;;9.20;5.50;;;;;;;27.39;26.65;100427.69;688302;28;1088;-79
2023/07/02 13:11:43;;;;;;;9.73;5.30;;;;;;;27.70;26.43;100452.13;691315;28;823;-79
2023/07/02 13:12:05;;;;;;;9.83;5.40;;;;;;;27.92;26.16;100446.59;690991;28;1126;-79
2023/07/02 13:12:25;;;;;;;10.65;5.70;;;;;;;28.09;25.69;100452.91;691206;28;961;-79
2023/07/02 13:12:46;;;;;;;10.10;5.80;;;;;;;28.10;25.98;100434.06;689104;28;863;-80
2023/07/02 13:13:07;;;;;;;10.02;5.88;;;;;;;28.23;25.61;100430.72;690798;28;1188;-80
2023/07/02 13:13:27;;;;;;;10.38;5.90;;;;;;;28.30;25.58;100434.88;688262;28;1233;-79
2023/07/02 13:13:48;;;;;;;9.87;5.63;;;;;;;28.39;25.11;100434.38;688717;28;768;-80
2023/07/02 13:14:09;;;;;;;9.52;5.90;;;;;;;28.48;25.30;100427.66;693415;28;1226;-79
2023/07/02 13:14:29;;;;;;;9.23;5.60;;;;;;;28.65;25.15;100437.47;691197;28;1395;-79
2023/07/02 13:14:50;;;;;;;9.85;5.72;;;;;;;28.82;25.34;100427.66;688527;28;950;-79
2023/07/02 13:15:12;;;;;;;11.25;5.68;;;;;;;28.91;24.55;100429.88;687206;28;1202;-78
2023/07/02 13:15:34;;;;;;;10.45;5.70;;;;;;;29.07;24.74;100437.09;688470;28;1939;-79
2023/07/02 13:15:55;;;;;;;9.55;5.50;;;;;;;29.15;24.24;100427.63;685735;28;1255;-78
2023/07/02 13:16:15;;;;;;;8.77;5.03;;;;;;;29.12;23.80;100443.06;688082;28;1293;-81
2023/07/02 13:16:36;;;;;;;9.63;5.25;;;;;;;28.95;24.25;100436.78;688649;28;1149;-80
2023/07/02 13:16:59;;;;;;;10.73;5.40;;;;;;;28.73;24.64;100432.56;688253;28;1543;-79